Time;durP1;ratioP1;P1;durP2;ratioP2;P2;SDS_P1;SDS_P2;PMS_P1;PMS_P2;Temp;Humidity;BMP_temperature;BMP_pressure;BME280_temperature;BME280_humidity;BME280_pressure;Samples;Min_cycle;Max_cycle;Signal;HPM_P1;HPM_P2
2022/04/17 00:00:35;;;;;;;0.93;0.93;;;2.80;99.90;;;;;;5069822;28;20196;-59
2022/04/17 00:03:01;;;;;;;0.83;0.53;;;2.80;99.90;;;;;;5052986;28;20650;-59
2022/04/17 00:05:28;;;;;;;0.13;0.13;;;2.80;99.90;;;;;;5069641;28;20186;-59
2022/04/17 00:07:55;;;;;;;0.63;0.63;;;2.80;99.90;;;;;;5061021;28;20187;-59
2022/04/17 00:10:21;;;;;;;0.83;0.70;;;2.80;99.90;;;;;;5056629;28;20179;-59
2022/04/17 00:12:48;;;;;;;0.20;0.20;;;2.80;99.90;;;;;;5056102;28;20512;-59
2022/04/17 00:15:14;;;;;;;0.20;0.20;;;2.70;99.90;;;;;;5073537;28;20195;-59
2022/04/17 00:17:43;;;;;;;0.33;0.33;;;2.70;99.90;;;;;;5073236;28;20660;-58
2022/04/17 00:20:15;;;;;;;0.47;0.47;;;2.80;99.90;;;;;;5073218;28;20192;-60
2022/04/17 00:22:41;;;;;;;0.30;0.30;;;2.70;99.90;;;;;;5089535;28;20266;-59
2022/04/17 00:25:09;;;;;;;0.30;0.30;;;2.70;99.90;;;;;;5072660;28;20179;-60
2022/04/17 00:27:36;;;;;;;0.40;0.40;;;2.70;99.90;;;;;;5089631;28;20218;-59
2022/04/17 00:30:07;;;;;;;6.03;0.57;;;2.70;99.90;;;;;;5072659;28;20599;-59
2022/04/17 00:32:34;;;;;;;0.40;0.40;;;2.70;99.90;;;;;;5089618;28;20185;-59
2022/04/17 00:35:00;;;;;;;0.37;0.37;;;2.70;99.90;;;;;;5072438;28;20206;-59
2022/04/17 00:37:27;;;;;;;1.20;1.20;;;2.70;99.90;;;;;;5072301;28;20232;-60
2022/04/17 00:39:53;;;;;;;0.17;0.17;;;2.70;99.90;;;;;;5089237;28;20537;-59
2022/04/17 00:42:20;;;;;;;0.57;0.47;;;2.70;99.90;;;;;;5089529;28;20357;-59
2022/04/17 00:44:47;;;;;;;0.97;0.97;;;2.70;99.90;;;;;;5071088;28;20191;-61
2022/04/17 00:47:15;;;;;;;0.00;0.00;;;2.60;99.90;;;;;;5070578;28;20575;-59
2022/04/17 00:49:43;;;;;;;12.20;7.27;;;2.60;99.90;;;;;;5052704;28;20637;-59
2022/04/17 00:52:10;;;;;;;9.67;6.47;;;2.60;99.90;;;;;;5068629;28;20598;-61
2022/04/17 00:54:42;;;;;;;12.20;7.33;;;2.60;99.90;;;;;;5052539;28;20191;-59
2022/04/17 00:57:10;;;;;;;14.13;6.60;;;2.50;99.90;;;;;;5068916;28;20184;-59
2022/04/17 00:59:37;;;;;;;13.07;7.53;;;2.50;99.90;;;;;;5068812;28;20240;-59
2022/04/17 01:02:06;;;;;;;11.03;6.30;;;2.50;99.90;;;;;;5052078;28;20597;-59
2022/04/17 01:04:33;;;;;;;12.67;7.47;;;2.50;99.90;;;;;;5052267;28;20185;-60
2022/04/17 01:07:00;;;;;;;12.97;7.60;;;2.50;99.90;;;;;;5068500;28;20249;-60
2022/04/17 01:09:26;;;;;;;12.33;7.50;;;2.50;99.90;;;;;;5055569;28;20607;-60
2022/04/17 01:11:53;;;;;;;12.33;7.33;;;2.50;99.90;;;;;;5056053;28;20179;-60
2022/04/17 01:14:20;;;;;;;15.43;8.73;;;2.50;99.90;;;;;;5072497;28;20187;-60
2022/04/17 01:16:47;;;;;;;13.27;8.03;;;2.50;99.90;;;;;;5072878;28;20642;-61
2022/04/17 01:19:15;;;;;;;15.27;7.97;;;2.50;99.90;;;;;;5072793;28;20528;-60
2022/04/17 01:21:43;;;;;;;13.47;7.70;;;2.50;99.90;;;;;;5072940;28;20204;-60
2022/04/17 01:26:58;;;;;;;15.60;7.83;;;2.50;99.90;;;;;;5073593;28;20225;-60
2022/04/17 01:29:41;;;;;;;16.30;8.03;;;2.50;99.90;;;;;;5072527;28;20257;-60
2022/04/17 01:32:09;;;;;;;14.10;8.03;;;2.50;99.90;;;;;;5073619;28;20933;-60
2022/04/17 01:34:36;;;;;;;16.67;8.27;;;2.50;99.90;;;;;;5073815;28;20600;-60
2022/04/17 01:37:03;;;;;;;12.90;7.67;;;2.40;99.90;;;;;;5071868;28;20253;-60
2022/04/17 01:39:30;;;;;;;14.20;8.07;;;2.50;99.90;;;;;;5072197;28;20186;-59
2022/04/17 01:41:58;;;;;;;15.53;8.50;;;2.50;99.90;;;;;;5073414;28;20185;-59
2022/04/17 01:44:25;;;;;;;12.80;7.67;;;2.40;99.90;;;;;;5039231;28;20503;-60
2022/04/17 01:46:53;;;;;;;13.33;8.23;;;2.40;99.90;;;;;;5055527;28;20231;-60
2022/04/17 01:49:20;;;;;;;12.37;7.07;;;2.40;99.90;;;;;;5073682;28;20179;-60
2022/04/17 01:51:51;;;;;;;10.70;6.33;;;2.50;99.90;;;;;;5072185;28;20210;-60
2022/04/17 01:54:18;;;;;;;13.40;7.87;;;2.50;99.90;;;;;;5071746;28;20182;-60
2022/04/17 01:56:48;;;;;;;12.47;7.77;;;2.50;99.90;;;;;;5072136;28;20536;-60
2022/04/17 01:59:16;;;;;;;13.27;7.63;;;2.50;99.90;;;;;;5073414;28;20180;-60
2022/04/17 02:01:43;;;;;;;11.83;7.97;;;2.50;99.90;;;;;;5072297;28;20312;-61
2022/04/17 02:04:10;;;;;;;12.37;7.30;;;2.50;99.90;;;;;;5071936;28;20820;-61
2022/04/17 02:06:40;;;;;;;13.80;7.63;;;2.50;99.90;;;;;;5072947;28;20741;-61
2022/04/17 02:09:08;;;;;;;13.60;8.10;;;2.50;99.90;;;;;;5071171;28;20191;-61
2022/04/17 02:11:34;;;;;;;18.20;9.10;;;2.50;99.90;;;;;;5071616;28;20227;-61
2022/04/17 02:14:01;;;;;;;16.90;8.57;;;2.50;99.90;;;;;;5072567;28;20545;-61
2022/04/17 02:16:28;;;;;;;15.23;8.17;;;2.40;99.90;;;;;;5071906;28;20207;-61
2022/04/17 02:18:55;;;;;;;17.00;10.37;;;2.50;99.90;;;;;;5054128;28;20196;-62
2022/04/17 02:21:21;;;;;;;15.33;9.00;;;2.50;99.90;;;;;;5038424;28;20546;-61
2022/04/17 02:23:53;;;;;;;13.67;8.43;;;2.50;99.90;;;;;;5072416;28;20621;-61
2022/04/17 02:26:19;;;;;;;15.83;9.37;;;2.50;99.90;;;;;;5071704;28;20581;-61
2022/04/17 02:28:46;;;;;;;17.50;10.50;;;2.50;99.90;;;;;;5054946;28;20190;-62
2022/04/17 02:31:16;;;;;;;18.33;10.13;;;2.50;99.90;;;;;;5071455;28;20191;-61
2022/04/17 02:33:42;;;;;;;17.67;9.17;;;2.50;99.90;;;;;;5071537;28;20246;-61
2022/04/17 02:36:08;;;;;;;16.13;8.63;;;2.50;99.90;;;;;;5054329;28;20623;-61
2022/04/17 02:38:35;;;;;;;15.40;8.83;;;2.50;99.90;;;;;;5038269;28;20977;-61
2022/04/17 02:41:01;;;;;;;15.67;9.43;;;2.50;99.90;;;;;;5038004;28;20223;-60
2022/04/17 02:43:28;;;;;;;13.63;7.90;;;2.50;99.90;;;;;;5071161;28;20550;-60
2022/04/17 02:45:54;;;;;;;16.30;8.80;;;2.50;99.90;;;;;;5054347;28;20640;-61
2022/04/17 02:48:21;;;;;;;16.70;10.80;;;2.50;99.90;;;;;;5054541;28;20188;-61
2022/04/17 02:50:48;;;;;;;18.87;9.70;;;2.50;99.90;;;;;;5054479;28;20192;-60
2022/04/17 02:53:15;;;;;;;16.17;9.73;;;2.50;99.90;;;;;;5070421;28;20209;-60
2022/04/17 02:55:41;;;;;;;16.23;10.03;;;2.50;99.90;;;;;;5070889;28;20194;-61
2022/04/17 02:58:10;;;;;;;16.87;8.13;;;2.50;99.90;;;;;;5071870;28;20545;-61
2022/04/17 03:05:36;;;;;;;16.13;10.83;;;2.50;99.90;;;;;;5054430;28;20212;-62
2022/04/17 03:06:10;;;;;;;15.87;10.33;;;2.40;99.90;;;;;;5070553;28;20268;-61
2022/04/17 03:08:41;;;;;;;16.67;9.67;;;2.40;99.90;;;;;;5068667;28;20197;-61
2022/04/17 03:11:08;;;;;;;15.83;9.97;;;2.40;99.90;;;;;;5073913;28;20189;-61
2022/04/17 03:13:34;;;;;;;17.47;10.00;;;2.40;99.90;;;;;;5090800;28;20547;-61
2022/04/17 03:16:01;;;;;;;17.23;10.27;;;2.40;99.90;;;;;;5073788;28;20195;-61
2022/04/17 03:18:28;;;;;;;19.37;10.80;;;2.40;99.90;;;;;;5073960;28;20541;-61
2022/04/17 03:20:54;;;;;;;18.97;10.77;;;2.40;99.90;;;;;;5091615;28;20204;-63
2022/04/17 03:23:20;;;;;;;22.93;11.57;;;2.40;99.90;;;;;;5090834;28;20646;-61
2022/04/17 03:25:47;;;;;;;22.23;12.03;;;2.40;99.90;;;;;;5072912;28;20225;-62
2022/04/17 03:28:13;;;;;;;22.00;10.50;;;2.40;99.90;;;;;;5073330;28;20190;-62
2022/04/17 03:30:39;;;;;;;20.60;11.17;;;2.40;99.90;;;;;;5089745;28;20175;-62
2022/04/17 03:33:05;;;;;;;21.37;10.30;;;2.40;99.90;;;;;;5090118;28;20708;-62
2022/04/17 03:35:32;;;;;;;17.10;10.13;;;2.40;99.90;;;;;;5073047;28;21055;-61
2022/04/17 03:37:59;;;;;;;16.97;10.53;;;2.30;99.90;;;;;;5056251;28;20550;-61
2022/04/17 03:40:26;;;;;;;22.00;11.33;;;2.30;99.90;;;;;;5073245;28;20182;-61
2022/04/17 03:42:52;;;;;;;18.83;10.53;;;2.30;99.90;;;;;;5088056;28;20543;-61
2022/04/17 03:45:19;;;;;;;14.57;8.10;;;2.30;99.90;;;;;;5069655;28;20182;-62
2022/04/17 03:47:45;;;;;;;21.07;10.23;;;2.40;99.90;;;;;;5053343;28;20292;-62
2022/04/17 03:50:12;;;;;;;18.37;11.00;;;2.30;99.90;;;;;;5070911;28;20210;-62
2022/04/17 03:52:43;;;;;;;19.37;8.77;;;2.30;99.90;;;;;;5053435;28;20324;-62
2022/04/17 03:55:10;;;;;;;18.20;9.60;;;2.30;99.90;;;;;;5069554;28;20302;-62
2022/04/17 03:57:36;;;;;;;15.90;9.37;;;2.30;99.90;;;;;;5069895;28;20210;-62
2022/04/17 04:00:04;;;;;;;14.37;7.83;;;2.30;99.90;;;;;;5069815;28;20537;-62
2022/04/17 04:02:30;;;;;;;13.97;7.57;;;2.30;99.90;;;;;;5069753;28;20184;-59
2022/04/17 04:04:57;;;;;;;16.30;8.13;;;2.30;99.90;;;;;;5036342;28;20225;-64
2022/04/17 04:07:24;;;;;;;12.97;7.90;;;2.20;99.90;;;;;;5069970;28;20204;-62
2022/04/17 04:09:51;;;;;;;13.27;8.50;;;2.30;99.90;;;;;;5037222;28;20259;-62
2022/04/17 04:12:18;;;;;;;13.33;7.93;;;2.30;99.90;;;;;;5052730;28;20252;-61
2022/04/17 04:14:45;;;;;;;12.23;8.03;;;2.30;99.90;;;;;;5070079;28;20537;-61
2022/04/17 04:17:11;;;;;;;12.10;7.53;;;2.40;99.90;;;;;;5069387;28;20188;-60
2022/04/17 04:19:37;;;;;;;16.33;8.40;;;2.40;99.90;;;;;;5070110;28;20644;-60
2022/04/17 04:22:03;;;;;;;12.80;7.00;;;2.40;99.90;;;;;;5052828;28;20181;-60
2022/04/17 04:24:31;;;;;;;12.80;6.70;;;2.30;99.90;;;;;;5069973;28;20225;-61
2022/04/17 04:29:42;;;;;;;13.73;6.83;;;2.30;99.90;;;;;;5056336;28;20249;-61
2022/04/17 04:32:08;;;;;;;13.47;7.37;;;2.30;99.90;;;;;;5069421;28;20525;-61
2022/04/17 04:34:35;;;;;;;10.33;5.90;;;2.30;99.90;;;;;;5053187;28;20257;-61
2022/04/17 04:37:01;;;;;;;12.90;5.60;;;2.30;99.90;;;;;;5052580;28;20257;-59
2022/04/17 04:39:28;;;;;;;13.20;5.70;;;2.30;99.90;;;;;;5053010;28;20184;-60
2022/04/17 04:41:54;;;;;;;10.67;5.60;;;2.30;99.90;;;;;;5071184;28;20190;-59
2022/04/17 04:44:22;;;;;;;9.50;5.60;;;2.30;99.90;;;;;;5089375;28;20590;-60
2022/04/17 04:46:48;;;;;;;12.73;4.83;;;2.30;99.90;;;;;;5077274;28;20216;-60
2022/04/17 04:49:29;;;;;;;11.03;6.17;;;2.30;99.90;;;;;;5076779;28;20245;-59
2022/04/17 04:52:00;;;;;;;9.37;5.03;;;2.30;99.90;;;;;;5093301;28;20612;-59
2022/04/17 04:54:27;;;;;;;7.57;5.17;;;2.30;99.90;;;;;;5095148;28;20508;-59
2022/04/17 04:56:54;;;;;;;9.57;4.97;;;2.30;99.90;;;;;;5076748;28;20304;-61
2022/04/17 04:59:20;;;;;;;14.70;5.67;;;2.40;99.90;;;;;;5094615;28;20186;-60
2022/04/17 05:01:47;;;;;;;9.17;5.70;;;2.40;99.90;;;;;;5093358;28;20615;-61
2022/04/17 05:04:14;;;;;;;11.67;5.60;;;2.40;99.90;;;;;;5060027;28;20186;-61
2022/04/17 05:06:40;;;;;;;9.63;5.07;;;2.40;99.90;;;;;;5093134;28;20252;-61
2022/04/17 05:09:06;;;;;;;9.13;5.33;;;2.40;99.90;;;;;;5058187;28;20547;-60
2022/04/17 05:11:32;;;;;;;10.47;4.83;;;2.40;99.90;;;;;;5073218;28;20191;-59
2022/04/17 05:13:58;;;;;;;10.63;5.20;;;2.40;99.90;;;;;;5073371;28;20609;-60
2022/04/17 05:16:25;;;;;;;10.37;5.03;;;2.50;99.90;;;;;;5074096;28;20203;-59
2022/04/17 05:19:18;;;;;;;10.20;5.30;;;2.40;99.90;;;;;;5040018;28;20228;-61
2022/04/17 05:21:37;;;;;;;10.47;5.37;;;2.50;99.90;;;;;;5058962;28;20199;-60
2022/04/17 05:24:04;;;;;;;8.50;4.97;;;2.50;99.90;;;;;;5072777;28;20185;-60
2022/04/17 05:26:29;;;;;;;13.80;5.77;;;2.70;99.90;;;;;;5072658;28;20551;-59
2022/04/17 05:28:56;;;;;;;7.77;3.87;;;2.70;99.90;;;;;;5074010;28;20245;-59
2022/04/17 05:31:22;;;;;;;8.80;5.17;;;2.70;99.90;;;;;;5072460;28;20548;-60
2022/04/17 05:33:48;;;;;;;9.07;5.17;;;2.70;99.90;;;;;;5072952;28;20186;-59
2022/04/17 05:36:14;;;;;;;6.43;3.67;;;2.60;99.90;;;;;;5072241;28;20244;-59
2022/04/17 05:38:40;;;;;;;15.83;6.20;;;2.80;99.90;;;;;;5072872;28;20643;-60
2022/04/17 05:41:10;;;;;;;12.23;6.73;;;2.80;99.90;;;;;;5072340;28;20200;-59
2022/04/17 05:43:38;;;;;;;11.63;5.87;;;2.90;99.90;;;;;;5055543;28;20549;-60
2022/04/17 05:46:04;;;;;;;8.43;4.93;;;3.00;99.90;;;;;;5072007;28;20572;-57
2022/04/17 05:48:30;;;;;;;11.27;5.40;;;2.80;99.90;;;;;;5055803;28;20551;-57
2022/04/17 05:50:57;;;;;;;5.90;3.63;;;3.00;99.90;;;;;;5076002;28;20187;-63
2022/04/17 05:53:23;;;;;;;9.70;5.40;;;3.10;99.90;;;;;;5058138;28;20188;-60
2022/04/17 05:55:49;;;;;;;12.13;5.40;;;3.10;99.90;;;;;;5074728;28;20192;-59
2022/04/17 05:58:15;;;;;;;11.40;5.13;;;3.10;99.90;;;;;;5074468;28;20550;-60
2022/04/17 06:00:43;;;;;;;10.07;4.63;;;3.10;99.90;;;;;;5058855;28;20187;-58
2022/04/17 06:03:09;;;;;;;14.47;5.93;;;3.20;99.90;;;;;;5093187;28;20534;-58
2022/04/17 06:05:35;;;;;;;8.20;5.20;;;3.40;99.90;;;;;;5074055;28;20192;-60
2022/04/17 06:08:00;;;;;;;9.43;5.77;;;3.70;99.90;;;;;;5082663;28;20190;-55
2022/04/17 06:10:27;;;;;;;8.33;5.07;;;3.90;99.90;;;;;;5087770;28;20187;-55
2022/04/17 06:12:52;;;;;;;8.13;5.17;;;4.00;99.90;;;;;;5075092;28;20218;-60
2022/04/17 06:15:18;;;;;;;13.50;4.87;;;4.00;99.90;;;;;;5074475;28;20212;-58
2022/04/17 06:17:44;;;;;;;8.17;3.93;;;4.00;99.90;;;;;;5078597;28;20191;-59
2022/04/17 06:20:13;;;;;;;12.00;4.30;;;3.90;99.90;;;;;;5072430;28;20641;-51
2022/04/17 06:22:39;;;;;;;20.33;11.13;;;4.00;99.90;;;;;;5070790;28;20287;-57
2022/04/17 06:25:10;;;;;;;7.60;4.03;;;4.10;99.90;;;;;;5053962;28;20291;-55
2022/04/17 06:27:44;;;;;;;11.23;5.90;;;4.20;99.90;;;;;;5071201;28;20580;-59
2022/04/17 06:30:18;;;;;;;9.70;5.17;;;4.40;99.90;;;;;;5072025;28;20173;-55
2022/04/17 06:32:44;;;;;;;10.10;4.83;;;4.60;99.90;;;;;;5054167;28;20330;-53
2022/04/17 06:35:12;;;;;;;11.00;4.73;;;4.50;99.90;;;;;;5070920;28;20231;-63
2022/04/17 06:37:59;;;;;;;18.40;5.23;;;4.40;99.90;;;;;;5054536;28;20593;-62
2022/04/17 06:40:31;;;;;;;11.60;5.23;;;4.30;99.90;;;;;;5053584;28;20555;-59
2022/04/17 06:43:05;;;;;;;8.80;4.87;;;4.30;99.90;;;;;;5071019;28;20243;-52
2022/04/17 06:45:33;;;;;;;15.60;5.43;;;4.60;99.90;;;;;;5071200;28;20526;-53
2022/04/17 06:48:21;;;;;;;8.67;4.83;;;4.80;99.90;;;;;;5083996;28;20279;-59
2022/04/17 06:50:49;;;;;;;7.67;4.73;;;4.70;99.90;;;;;;5074205;28;20212;-57
2022/04/17 06:53:16;;;;;;;8.80;4.87;;;4.70;99.90;;;;;;5089824;28;20216;-57
2022/04/17 06:55:42;;;;;;;8.07;4.47;;;4.70;99.90;;;;;;5073898;28;20184;-59
2022/04/17 06:58:09;;;;;;;7.70;4.90;;;4.80;99.90;;;;;;5091076;28;20271;-54
2022/04/17 07:00:36;;;;;;;7.73;4.37;;;4.90;99.90;;;;;;5090268;28;20176;-57
2022/04/17 07:03:02;;;;;;;7.10;4.10;;;5.00;99.90;;;;;;5091067;28;20590;-55
2022/04/17 07:05:28;;;;;;;7.97;3.83;;;4.90;99.90;;;;;;5089329;28;20181;-56
2022/04/17 07:08:12;;;;;;;10.83;3.90;;;5.00;99.90;;;;;;5081841;28;20299;-53
2022/04/17 07:10:39;;;;;;;10.13;4.20;;;4.90;99.90;;;;;;5053224;28;20630;-57
2022/04/17 07:13:15;;;;;;;7.60;4.50;;;4.90;99.90;;;;;;5070009;28;20178;-59
2022/04/17 07:15:41;;;;;;;5.63;3.27;;;5.00;99.90;;;;;;5077778;28;20247;-56
2022/04/17 07:18:07;;;;;;;5.70;3.90;;;4.90;99.90;;;;;;5060159;28;20185;-61
2022/04/17 07:20:34;;;;;;;7.70;4.20;;;4.80;99.90;;;;;;5076588;28;20181;-60
2022/04/17 07:23:00;;;;;;;5.83;3.70;;;4.90;99.90;;;;;;5053817;28;20702;-56
2022/04/17 07:25:26;;;;;;;10.57;4.07;;;4.90;99.90;;;;;;5071441;28;20388;-56
2022/04/17 07:27:53;;;;;;;6.43;3.73;;;4.90;99.90;;;;;;5071359;28;20215;-58
2022/04/17 07:30:23;;;;;;;7.63;4.27;;;5.00;99.90;;;;;;5075594;28;20199;-58
2022/04/17 07:32:51;;;;;;;5.33;3.30;;;5.40;99.90;;;;;;5075795;28;20193;-58
2022/04/17 07:35:18;;;;;;;7.63;4.23;;;5.30;99.90;;;;;;5083040;28;20193;-56
2022/04/17 07:37:58;;;;;;;5.60;3.73;;;5.30;99.90;;;;;;5074273;28;20200;-56
2022/04/17 07:40:27;;;;;;;6.22;3.95;;;5.40;99.90;;;;;;5076200;28;20436;-53
2022/04/17 07:42:58;;;;;;;6.20;4.10;;;5.70;99.90;;;;;;5077268;28;20174;-58
2022/04/17 07:45:24;;;;;;;5.20;3.13;;;5.50;99.90;;;;;;5089181;28;20217;-55
2022/04/17 07:47:51;;;;;;;6.17;3.63;;;5.40;99.90;;;;;;5076462;28;20305;-58
2022/04/17 07:50:19;;;;;;;6.03;3.47;;;5.30;99.90;;;;;;5068164;28;20196;-58
2022/04/17 07:52:45;;;;;;;5.53;3.57;;;5.40;99.90;;;;;;5074913;28;20185;-62
2022/04/17 07:55:14;;;;;;;10.67;4.30;;;5.60;99.90;;;;;;5058474;28;20266;-61
2022/04/17 08:00:28;;;;;;;10.23;5.03;;;5.50;99.90;;;;;;5090936;28;20222;-61
2022/04/17 08:05:41;;;;;;;8.50;3.37;;;5.00;99.90;;;;;;5058802;28;20221;-60
2022/04/17 08:08:10;;;;;;;7.97;4.00;;;4.90;99.90;;;;;;5079496;28;20224;-61
2022/04/17 08:10:37;;;;;;;6.20;3.90;;;4.90;99.90;;;;;;5053065;28;20498;-57
2022/04/17 08:13:04;;;;;;;6.83;4.23;;;4.60;99.90;;;;;;5069366;28;20173;-56
2022/04/17 08:15:29;;;;;;;5.00;3.57;;;4.60;99.90;;;;;;5068164;28;20271;-57
2022/04/17 08:17:56;;;;;;;9.13;5.13;;;4.80;99.90;;;;;;5082067;28;20180;-58
2022/04/17 08:20:22;;;;;;;7.90;4.57;;;4.90;99.90;;;;;;5089352;28;20252;-59
2022/04/17 08:22:47;;;;;;;6.97;4.33;;;5.00;99.90;;;;;;5088476;28;20282;-58
2022/04/17 08:25:14;;;;;;;9.10;4.80;;;5.00;99.90;;;;;;5071013;28;20331;-56
2022/04/17 08:27:47;;;;;;;7.43;4.87;;;5.10;99.90;;;;;;5088741;28;20298;-54
2022/04/17 08:30:14;;;;;;;10.33;4.60;;;5.30;99.90;;;;;;5090148;28;20180;-58
2022/04/17 08:32:40;;;;;;;7.27;4.80;;;5.40;99.90;;;;;;5088874;28;20216;-55
2022/04/17 08:35:07;;;;;;;6.63;4.80;;;5.30;99.90;;;;;;5071915;28;20622;-60
2022/04/17 08:37:32;;;;;;;6.87;4.90;;;5.40;99.90;;;;;;5089977;28;20593;-53
2022/04/17 08:39:59;;;;;;;13.23;5.13;;;5.60;99.90;;;;;;5069682;28;20198;-52
2022/04/17 08:42:26;;;;;;;5.17;3.80;;;6.10;99.90;;;;;;5070056;28;20175;-54
2022/04/17 08:44:52;;;;;;;6.07;3.77;;;6.10;99.90;;;;;;5084220;28;20190;-56
2022/04/17 08:47:19;;;;;;;8.00;4.10;;;6.00;99.90;;;;;;5078254;28;20785;-56
2022/04/17 08:49:45;;;;;;;7.63;4.03;;;6.00;99.90;;;;;;5069048;28;20178;-55
2022/04/17 08:52:15;;;;;;;5.80;3.93;;;6.10;99.90;;;;;;5069358;28;20181;-52
2022/04/17 08:54:43;;;;;;;5.73;3.83;;;6.30;99.90;;;;;;5068570;28;20184;-54
2022/04/17 08:57:10;;;;;;;5.10;3.63;;;6.30;99.90;;;;;;5051761;28;20200;-54
2022/04/17 08:59:36;;;;;;;6.50;4.03;;;6.40;99.90;;;;;;5079964;28;20201;-53
2022/04/17 09:02:08;;;;;;;6.23;4.43;;;6.10;99.90;;;;;;5083617;28;20194;-55
2022/04/17 09:04:34;;;;;;;6.57;4.10;;;6.20;99.90;;;;;;5088549;28;20174;-55
2022/04/17 09:07:00;;;;;;;4.97;3.47;;;6.20;99.90;;;;;;5086503;28;20576;-59
2022/04/17 09:09:28;;;;;;;8.57;4.70;;;6.00;99.90;;;;;;5068323;28;20175;-60
2022/04/17 09:11:56;;;;;;;5.77;4.40;;;5.80;99.90;;;;;;5069090;28;20186;-60
2022/04/17 09:14:23;;;;;;;8.97;3.53;;;6.00;99.90;;;;;;5067696;28;20341;-61
2022/04/17 09:16:51;;;;;;;8.43;4.87;;;6.00;99.90;;;;;;5051511;28;20656;-60
2022/04/17 09:19:19;;;;;;;4.23;2.77;;;6.20;99.90;;;;;;5069864;28;20182;-59
2022/04/17 09:21:45;;;;;;;8.37;4.17;;;6.70;99.90;;;;;;5067666;28;20544;-60
2022/04/17 09:24:17;;;;;;;6.53;5.03;;;6.70;99.90;;;;;;5071707;28;20190;-59
2022/04/17 09:26:50;;;;;;;10.40;4.97;;;6.80;99.90;;;;;;5084519;28;20698;-60
2022/04/17 09:29:21;;;;;;;6.57;4.00;;;6.90;99.90;;;;;;5073310;28;20193;-59
2022/04/17 09:31:48;;;;;;;7.57;3.87;;;6.50;99.90;;;;;;5088767;28;20183;-60
2022/04/17 09:34:14;;;;;;;3.83;3.10;;;6.50;99.90;;;;;;5091557;28;20181;-59
2022/04/17 09:36:40;;;;;;;4.13;2.90;;;6.40;99.90;;;;;;5092021;28;20571;-54
2022/04/17 09:39:14;;;;;;;4.13;2.80;;;6.40;99.90;;;;;;5093328;28;20181;-55
2022/04/17 09:41:57;;;;;;;5.80;3.70;;;6.50;99.90;;;;;;5075385;28;20182;-52
2022/04/17 09:44:47;;;;;;;5.47;3.10;;;6.50;99.90;;;;;;5077489;28;20609;-54
2022/04/17 09:47:26;;;;;;;4.20;2.97;;;6.30;99.90;;;;;;5080328;28;20207;-62
2022/04/17 09:50:01;;;;;;;5.20;3.50;;;5.90;99.90;;;;;;5076368;28;20588;-57
2022/04/17 09:52:39;;;;;;;5.27;3.10;;;5.70;99.90;;;;;;5092355;28;20242;-53
2022/04/17 09:55:05;;;;;;;3.40;2.40;;;5.70;99.90;;;;;;5093929;28;20663;-55
2022/04/17 09:57:38;;;;;;;4.43;3.30;;;5.60;99.90;;;;;;5091774;28;20269;-53
2022/04/17 10:00:18;;;;;;;5.60;3.17;;;5.70;99.90;;;;;;5091793;28;20281;-52
2022/04/17 10:02:45;;;;;;;2.07;1.67;;;6.10;99.90;;;;;;5093183;28;20691;-58
2022/04/17 10:05:13;;;;;;;4.60;2.20;;;6.10;99.90;;;;;;5092130;28;20182;-52
2022/04/17 10:07:44;;;;;;;5.00;2.50;;;5.90;99.90;;;;;;5093383;28;20205;-55
2022/04/17 10:10:12;;;;;;;3.87;2.63;;;5.40;99.90;;;;;;5078775;28;20181;-52
2022/04/17 10:12:45;;;;;;;5.93;2.63;;;5.20;99.90;;;;;;5071532;28;20174;-59
2022/04/17 10:15:11;;;;;;;5.53;2.60;;;5.20;99.90;;;;;;5054833;28;20639;-56
2022/04/17 10:17:40;;;;;;;4.40;2.00;;;5.30;99.90;;;;;;5083473;28;20681;-60
2022/04/17 10:20:08;;;;;;;2.70;2.23;;;5.50;99.90;;;;;;5091778;28;20211;-56
2022/04/17 10:22:38;;;;;;;5.23;3.10;;;5.80;99.90;;;;;;5092618;28;20265;-58
2022/04/17 10:25:09;;;;;;;3.57;2.17;;;5.90;99.90;;;;;;5091970;28;20192;-57
2022/04/17 10:27:48;;;;;;;3.80;2.33;;;6.20;99.90;;;;;;5093065;28;20210;-56
2022/04/17 10:30:21;;;;;;;3.90;2.30;;;6.30;99.90;;;;;;5084558;28;20175;-57
2022/04/17 10:32:49;;;;;;;7.93;2.93;;;6.40;99.90;;;;;;5079379;28;20191;-53
2022/04/17 10:35:27;;;;;;;3.67;2.20;;;6.20;99.90;;;;;;5082050;28;20190;-61
2022/04/17 10:38:17;;;;;;;12.80;2.17;;;6.10;99.90;;;;;;5076794;28;20190;-61
2022/04/17 10:40:53;;;;;;;8.70;3.13;;;6.00;99.90;;;;;;5089073;28;20180;-59
2022/04/17 10:43:20;;;;;;;4.27;2.73;;;5.90;99.90;;;;;;5081391;28;20193;-59
2022/04/17 10:46:18;;;;;;;4.87;2.40;;;5.60;99.90;;;;;;5071098;28;20207;-56
2022/04/17 10:49:01;;;;;;;6.03;2.60;;;5.60;99.90;;;;;;5072090;28;20544;-56
2022/04/17 10:51:32;;;;;;;7.97;2.90;;;5.40;99.90;;;;;;5071478;28;20188;-55
2022/04/17 10:54:00;;;;;;;4.53;2.70;;;5.40;99.90;;;;;;5054899;28;20231;-55
2022/04/17 10:56:26;;;;;;;4.87;2.73;;;5.50;99.90;;;;;;5071934;28;20699;-56
2022/04/17 10:58:57;;;;;;;6.37;3.07;;;5.50;99.90;;;;;;5071171;28;20544;-59
2022/04/17 11:01:41;;;;;;;4.97;3.30;;;5.70;99.90;;;;;;5071536;28;20525;-55
2022/04/17 11:04:17;;;;;;;3.20;1.87;;;6.10;99.90;;;;;;5087308;28;20175;-67
2022/04/17 11:06:43;;;;;;;3.70;2.27;;;5.90;99.90;;;;;;5072086;28;20219;-56
2022/04/17 11:09:15;;;;;;;14.00;4.23;;;5.60;99.90;;;;;;5078654;28;20607;-58
2022/04/17 11:11:43;;;;;;;5.93;3.17;;;5.60;99.90;;;;;;5081493;28;20543;-57
2022/04/17 11:14:19;;;;;;;5.13;2.80;;;5.60;99.90;;;;;;5080116;28;20200;-59
2022/04/17 11:16:59;;;;;;;8.70;3.30;;;5.50;99.90;;;;;;5081418;28;20306;-61
2022/04/17 11:19:33;;;;;;;15.10;4.60;;;5.60;99.90;;;;;;5076578;28;20615;-58
2022/04/17 11:22:04;;;;;;;7.67;3.13;;;5.70;99.90;;;;;;5079181;28;20668;-55
2022/04/17 11:24:54;;;;;;;7.20;3.17;;;5.70;99.90;;;;;;5079852;28;20181;-54
2022/04/17 11:27:32;;;;;;;6.67;2.77;;;5.80;99.90;;;;;;5085142;28;20242;-59
2022/04/17 11:29:59;;;;;;;5.70;3.13;;;5.70;99.90;;;;;;5090561;28;20296;-50
2022/04/17 11:32:29;;;;;;;10.80;2.90;;;5.70;99.90;;;;;;5073379;28;20646;-57
2022/04/17 11:34:57;;;;;;;4.53;2.47;;;5.80;99.90;;;;;;5090380;28;20187;-56
2022/04/17 11:37:27;;;;;;;4.73;2.90;;;6.00;99.90;;;;;;5089935;28;20287;-55
2022/04/17 11:39:55;;;;;;;2.97;2.10;;;6.20;99.90;;;;;;5092160;28;20188;-58
2022/04/17 11:42:21;;;;;;;3.20;2.50;;;6.20;99.90;;;;;;5090179;28;20174;-56
2022/04/17 11:44:48;;;;;;;3.33;2.37;;;6.30;99.90;;;;;;5071765;28;20186;-59
2022/04/17 11:47:21;;;;;;;5.00;2.00;;;6.60;99.90;;;;;;5069218;28;20240;-57
2022/04/17 11:49:48;;;;;;;3.90;2.40;;;7.00;99.90;;;;;;5053536;28;20177;-55
2022/04/17 11:52:17;;;;;;;4.47;2.13;;;7.30;99.90;;;;;;5073664;28;20195;-52
2022/04/17 11:54:44;;;;;;;3.90;2.40;;;7.70;99.90;;;;;;5070173;28;20264;-55
2022/04/17 11:57:13;;;;;;;4.60;2.67;;;8.00;99.90;;;;;;5053138;28;20181;-51
2022/04/17 11:59:45;;;;;;;2.33;1.50;;;8.40;99.40;;;;;;5072886;28;20205;-57
2022/04/17 12:02:16;;;;;;;5.17;2.30;;;8.70;98.20;;;;;;5090716;28;20186;-50
2022/04/17 12:04:47;;;;;;;5.40;1.90;;;8.80;97.80;;;;;;5091281;28;20231;-50
2022/04/17 12:07:18;;;;;;;2.63;1.90;;;9.00;97.80;;;;;;5078095;28;20209;-54
2022/04/17 12:09:44;;;;;;;4.43;2.30;;;8.70;97.30;;;;;;5091989;28;20220;-55
2022/04/17 12:12:11;;;;;;;2.67;1.30;;;9.50;95.10;;;;;;5090947;28;20576;-57
2022/04/17 12:14:37;;;;;;;2.97;1.97;;;9.80;93.50;;;;;;5090624;28;20174;-57
2022/04/17 12:17:03;;;;;;;2.60;1.60;;;9.60;93.80;;;;;;5083103;28;20216;-56
2022/04/17 12:19:29;;;;;;;2.93;1.87;;;10.00;92.80;;;;;;5069694;28;20245;-58
2022/04/17 12:21:55;;;;;;;4.13;2.13;;;10.30;91.50;;;;;;5052819;28;20720;-58
2022/04/17 12:24:27;;;;;;;5.13;2.70;;;10.70;91.20;;;;;;5052827;28;20566;-57
2022/04/17 12:26:54;;;;;;;2.80;2.10;;;10.50;88.80;;;;;;5070922;28;20755;-57
2022/04/17 12:29:20;;;;;;;3.50;2.43;;;9.80;90.10;;;;;;5070362;28;20184;-53
2022/04/17 12:31:46;;;;;;;3.00;1.97;;;8.70;91.50;;;;;;5070928;28;20181;-52
2022/04/17 12:34:19;;;;;;;2.60;1.50;;;8.00;93.80;;;;;;5069318;28;20193;-55
2022/04/17 12:36:46;;;;;;;3.47;1.90;;;7.50;95.40;;;;;;5070260;28;20277;-55
2022/04/17 12:39:12;;;;;;;6.70;1.90;;;7.30;96.20;;;;;;5070295;28;20624;-52
2022/04/17 12:41:49;;;;;;;3.43;1.83;;;7.00;96.30;;;;;;5070865;28;20213;-54
2022/04/17 12:44:30;;;;;;;4.60;2.53;;;7.10;97.00;;;;;;5065282;28;20195;-53
2022/04/17 12:47:12;;;;;;;3.47;1.90;;;7.60;97.50;;;;;;5090788;28;20249;-52
2022/04/17 12:49:39;;;;;;;2.37;1.70;;;9.50;93.30;;;;;;5090599;28;20182;-55
2022/04/17 12:52:05;;;;;;;4.67;2.10;;;11.50;90.00;;;;;;5055266;28;20687;-60
2022/04/17 12:54:42;;;;;;;4.87;2.13;;;14.20;81.30;;;;;;5088951;28;20611;-56
2022/04/17 12:57:10;;;;;;;1.53;1.43;;;16.90;68.40;;;;;;5089110;28;20219;-61
2022/04/17 12:59:52;;;;;;;1.73;1.40;;;18.50;57.60;;;;;;5089261;28;20629;-50
2022/04/17 13:02:28;;;;;;;3.17;1.60;;;18.20;53.60;;;;;;5090147;28;20183;-54
2022/04/17 13:04:56;;;;;;;1.80;1.50;;;16.60;54.80;;;;;;5094311;28;20265;-55
2022/04/17 13:07:22;;;;;;;3.50;1.97;;;15.00;57.30;;;;;;5090317;28;20217;-55
2022/04/17 13:10:01;;;;;;;2.97;1.90;;;13.10;60.90;;;;;;5073348;28;20177;-57
2022/04/17 13:12:41;;;;;;;7.13;3.10;;;11.00;65.80;;;;;;5074135;28;20177;-58